createdAt,value
2023-05-12T00:01:14.374Z,9.00
2023-05-12T00:03:41.900Z,9.00
2023-05-12T00:06:08.938Z,8.90
2023-05-12T00:08:35.825Z,9.00
2023-05-12T00:11:02.970Z,9.00
2023-05-12T00:13:30.172Z,9.00
2023-05-12T00:15:59.054Z,9.00
2023-05-12T00:18:28.335Z,9.00
2023-05-12T00:20:55.677Z,9.00
2023-05-12T00:23:22.988Z,9.00
2023-05-12T00:25:50.336Z,9.00
2023-05-12T00:28:18.218Z,9.00
2023-05-12T00:30:45.166Z,9.00
2023-05-12T00:33:12.112Z,9.00
2023-05-12T00:35:38.942Z,9.00
2023-05-12T00:38:05.940Z,8.90
2023-05-12T00:40:32.764Z,8.90
2023-05-12T00:42:59.565Z,9.00
2023-05-12T00:45:26.753Z,9.00
2023-05-12T00:47:53.679Z,8.90
2023-05-12T00:50:21.700Z,8.90
2023-05-12T00:52:49.657Z,8.90
2023-05-12T00:55:16.786Z,8.90
2023-05-12T00:57:44.273Z,8.90
2023-05-12T01:00:11.848Z,8.90
2023-05-12T01:02:39.952Z,8.90
2023-05-12T01:05:07.334Z,8.90
2023-05-12T01:07:34.213Z,8.90
2023-05-12T01:10:01.155Z,8.90
2023-05-12T01:12:28.621Z,8.90
2023-05-12T01:14:56.982Z,8.90
2023-05-12T01:17:32.455Z,8.90
2023-05-12T01:20:02.416Z,8.90
2023-05-12T01:22:33.731Z,8.90
2023-05-12T01:25:08.345Z,8.90
2023-05-12T01:27:35.961Z,9.00
2023-05-12T01:30:05.126Z,9.00
2023-05-12T01:32:32.096Z,9.00
2023-05-12T01:34:58.902Z,9.00
2023-05-12T01:37:29.070Z,9.00
2023-05-12T01:39:55.977Z,9.00
2023-05-12T01:42:22.826Z,8.90
2023-05-12T01:44:49.585Z,8.90
2023-05-12T01:47:16.491Z,8.90
2023-05-12T01:49:43.312Z,8.90
2023-05-12T01:52:10.152Z,8.90
2023-05-12T01:54:37.218Z,9.00
2023-05-12T01:57:04.299Z,8.90
2023-05-12T01:59:31.164Z,8.90
2023-05-12T02:01:57.968Z,8.90
2023-05-12T02:04:24.847Z,8.90
2023-05-12T02:06:52.120Z,9.00
2023-05-12T02:09:19.029Z,9.00
2023-05-12T02:11:45.785Z,9.00
2023-05-12T02:14:12.535Z,8.90
2023-05-12T02:16:39.382Z,8.90
2023-05-12T02:19:06.424Z,8.90
2023-05-12T02:21:33.314Z,8.80
2023-05-12T02:24:00.138Z,8.90
2023-05-12T02:26:26.997Z,8.90
2023-05-12T02:28:53.784Z,8.90
2023-05-12T02:31:20.583Z,8.80
2023-05-12T02:33:47.379Z,8.80
2023-05-12T02:36:14.228Z,8.90
2023-05-12T02:38:41.271Z,8.80
2023-05-12T02:41:08.101Z,8.80
2023-05-12T02:43:35.008Z,8.80
2023-05-12T02:46:01.934Z,8.80
2023-05-12T02:48:28.822Z,8.80
2023-05-12T02:50:56.030Z,8.80
2023-05-12T02:53:22.951Z,8.80
2023-05-12T02:55:49.877Z,8.80
2023-05-12T02:58:16.715Z,8.80
2023-05-12T03:00:43.532Z,8.70
2023-05-12T03:03:13.852Z,8.70
2023-05-12T03:05:40.997Z,8.70
2023-05-12T03:08:07.841Z,8.70
2023-05-12T03:10:34.653Z,8.70
2023-05-12T03:13:01.439Z,8.70
2023-05-12T03:15:28.309Z,8.70
2023-05-12T03:17:55.125Z,8.70
2023-05-12T03:20:22.361Z,8.70
2023-05-12T03:22:49.436Z,8.80
2023-05-12T03:25:16.908Z,8.70
2023-05-12T03:27:43.918Z,8.70
2023-05-12T03:30:11.557Z,8.70
2023-05-12T03:32:39.432Z,8.80
2023-05-12T03:35:07.528Z,8.70
2023-05-12T03:37:34.368Z,8.70
2023-05-12T03:40:01.248Z,8.60
2023-05-12T03:42:28.602Z,8.70
2023-05-12T03:44:55.394Z,8.60
2023-05-12T03:47:22.289Z,8.70
2023-05-12T03:49:49.172Z,8.70
2023-05-12T03:52:16.480Z,8.70
2023-05-12T03:54:43.361Z,8.60
2023-05-12T03:57:10.245Z,8.70
2023-05-12T03:59:37.019Z,8.70
2023-05-12T04:02:04.323Z,8.70
2023-05-12T04:04:31.190Z,8.70
2023-05-12T04:06:59.492Z,8.60
2023-05-12T04:09:26.245Z,8.60
2023-05-12T04:11:53.020Z,8.70
2023-05-12T04:14:26.510Z,8.70
2023-05-12T04:16:58.933Z,8.70
2023-05-12T04:19:25.950Z,8.60
2023-05-12T04:21:52.709Z,8.60
2023-05-12T04:24:19.571Z,8.60
2023-05-12T04:26:46.367Z,8.60
2023-05-12T04:29:13.447Z,8.60
2023-05-12T04:31:40.358Z,8.60
2023-05-12T04:34:07.226Z,8.60
2023-05-12T04:36:34.108Z,8.60
2023-05-12T04:39:00.863Z,8.60
2023-05-12T04:41:27.733Z,8.60
2023-05-12T04:46:24.275Z,8.70
2023-05-12T04:48:51.112Z,8.60
2023-05-12T04:51:17.985Z,8.60
2023-05-12T04:53:46.159Z,8.60
2023-05-12T04:56:12.984Z,8.60
2023-05-12T04:58:39.770Z,8.70
2023-05-12T05:01:06.939Z,8.60
2023-05-12T05:03:33.975Z,8.60
2023-05-12T05:06:01.255Z,8.60
2023-05-12T05:08:28.046Z,8.60
2023-05-12T05:10:54.800Z,8.60
2023-05-12T05:13:21.670Z,8.70
2023-05-12T05:15:55.577Z,8.70
2023-05-12T05:18:24.165Z,8.80
2023-05-12T05:20:57.988Z,8.70
2023-05-12T05:23:26.431Z,8.80
2023-05-12T05:25:53.479Z,8.80
2023-05-12T05:28:20.274Z,8.90
2023-05-12T05:30:47.236Z,8.90
2023-05-12T05:33:14.065Z,8.90
2023-05-12T05:35:41.953Z,9.00
2023-05-12T05:38:08.797Z,8.90
2023-05-12T05:40:45.357Z,9.00
2023-05-12T05:43:15.971Z,9.00
2023-05-12T05:45:42.786Z,9.10
2023-05-12T05:48:09.589Z,9.10
2023-05-12T05:50:36.454Z,9.10
2023-05-12T05:53:03.323Z,9.10
2023-05-12T05:55:30.257Z,9.00
2023-05-12T05:57:57.216Z,9.10
2023-05-12T06:00:24.059Z,9.20
2023-05-12T06:02:50.939Z,9.20
2023-05-12T06:05:18.191Z,9.10
2023-05-12T06:07:45.134Z,9.20
2023-05-12T06:10:12.113Z,9.20
2023-05-12T06:12:40.919Z,9.20
2023-05-12T06:15:08.608Z,9.20
2023-05-12T06:17:35.796Z,9.30
2023-05-12T06:20:03.370Z,9.20
2023-05-12T06:22:30.124Z,9.20
2023-05-12T06:24:57.393Z,9.10
2023-05-12T06:27:24.204Z,9.20
2023-05-12T06:29:52.150Z,9.20
2023-05-12T06:32:19.278Z,9.20
2023-05-12T06:34:46.128Z,9.30
2023-05-12T06:37:12.896Z,9.30
2023-05-12T06:39:39.681Z,9.40
2023-05-12T06:42:06.696Z,9.30
2023-05-12T06:44:33.526Z,9.30
2023-05-12T06:47:00.347Z,9.20
2023-05-12T06:49:27.298Z,9.30
2023-05-12T06:51:54.265Z,9.40
2023-05-12T06:54:20.998Z,9.30
2023-05-12T06:56:47.781Z,9.30
2023-05-12T06:59:14.600Z,9.40
2023-05-12T07:01:43.057Z,9.50
2023-05-12T07:04:10.135Z,9.50
2023-05-12T07:06:37.169Z,9.30
2023-05-12T07:09:04.475Z,9.30
2023-05-12T07:11:31.354Z,9.30
2023-05-12T07:14:12.471Z,9.40
2023-05-12T07:16:39.716Z,9.50
2023-05-12T07:19:11.032Z,9.50
2023-05-12T07:21:38.067Z,9.60
2023-05-12T07:24:06.332Z,9.50
2023-05-12T07:26:33.578Z,9.50
2023-05-12T07:29:00.978Z,9.50
2023-05-12T07:31:28.742Z,9.60
2023-05-12T07:33:56.029Z,9.70
2023-05-12T07:36:22.961Z,9.80
2023-05-12T07:38:50.016Z,9.80
2023-05-12T07:41:17.463Z,9.80
2023-05-12T07:43:44.418Z,10.00
2023-05-12T07:46:11.294Z,10.00
2023-05-12T07:48:40.345Z,10.00
2023-05-12T07:51:08.341Z,10.10
2023-05-12T07:53:35.588Z,10.10
2023-05-12T07:56:02.508Z,10.10
2023-05-12T07:58:29.486Z,10.20
2023-05-12T08:00:59.052Z,10.10
2023-05-12T08:03:26.331Z,10.40
2023-05-12T08:05:53.383Z,10.40
2023-05-12T08:08:20.148Z,10.50
2023-05-12T08:10:46.898Z,10.50
2023-05-12T08:13:13.682Z,10.30
2023-05-12T08:15:40.470Z,10.50
2023-05-12T08:18:07.286Z,10.50
2023-05-12T08:20:34.969Z,10.30
2023-05-12T08:23:01.849Z,10.40
2023-05-12T08:25:30.555Z,10.40
2023-05-12T08:27:59.333Z,10.40
2023-05-12T08:30:26.615Z,10.40
2023-05-12T08:32:57.333Z,10.30
2023-05-12T08:35:26.127Z,10.40
2023-05-12T08:37:53.176Z,10.50
2023-05-12T08:40:24.449Z,10.60
2023-05-12T08:43:10.136Z,10.60
2023-05-12T08:45:38.386Z,10.60
2023-05-12T08:48:08.879Z,10.70
2023-05-12T08:50:38.117Z,10.70
2023-05-12T08:53:30.033Z,10.70
2023-05-12T08:58:48.418Z,10.70
2023-05-12T09:01:17.450Z,10.70
2023-05-12T09:03:45.134Z,10.80
2023-05-12T09:06:12.287Z,10.80
2023-05-12T09:08:40.701Z,10.70
2023-05-12T09:11:12.524Z,10.70
2023-05-12T09:14:03.234Z,10.70
2023-05-12T09:16:34.436Z,10.90
2023-05-12T09:19:02.767Z,10.80
2023-05-12T09:21:30.886Z,10.90
2023-05-12T09:23:57.708Z,10.80
2023-05-12T09:26:28.831Z,10.70
2023-05-12T09:29:06.931Z,10.70
2023-05-12T09:31:34.043Z,10.80
2023-05-12T09:34:02.372Z,10.80
2023-05-12T09:36:29.132Z,11.00
2023-05-12T09:39:07.272Z,11.20
2023-05-12T09:41:38.052Z,11.20
2023-05-12T09:44:05.904Z,11.10
2023-05-12T09:46:32.903Z,11.20
2023-05-12T09:48:59.945Z,11.30
2023-05-12T09:51:27.471Z,11.30
2023-05-12T09:53:54.292Z,11.60
2023-05-12T09:56:21.405Z,11.40
2023-05-12T09:58:51.599Z,11.40
2023-05-12T10:01:23.380Z,11.50
2023-05-12T10:03:53.149Z,11.10
2023-05-12T10:06:32.262Z,11.50
2023-05-12T10:09:17.468Z,11.40
2023-05-12T10:11:45.247Z,11.30
2023-05-12T10:14:13.490Z,11.30
2023-05-12T10:16:41.522Z,11.30
2023-05-12T10:19:12.672Z,11.20
2023-05-12T10:21:40.866Z,11.30
2023-05-12T10:24:07.906Z,11.30
2023-05-12T10:26:37.618Z,11.20
2023-05-12T10:29:04.486Z,11.00
2023-05-12T10:31:31.771Z,10.90
2023-05-12T10:33:59.769Z,10.90
2023-05-12T10:36:26.815Z,10.80
2023-05-12T10:38:54.846Z,10.60
2023-05-12T10:41:32.591Z,10.60
2023-05-12T10:43:59.627Z,10.70
2023-05-12T10:46:27.306Z,10.80
2023-05-12T10:49:00.638Z,10.60
2023-05-12T10:51:33.207Z,10.60
2023-05-12T10:54:05.610Z,10.70
2023-05-12T10:56:38.807Z,10.80
2023-05-12T10:59:13.733Z,10.90
2023-05-12T11:01:42.961Z,10.70
2023-05-12T11:04:22.322Z,10.60
2023-05-12T11:06:59.333Z,10.70
2023-05-12T11:09:26.927Z,10.80
2023-05-12T11:11:54.309Z,10.60
2023-05-12T11:14:21.206Z,10.80
2023-05-12T11:16:48.044Z,11.00
2023-05-12T11:19:14.919Z,10.90
2023-05-12T11:21:41.966Z,10.60
2023-05-12T11:24:13.524Z,10.50
2023-05-12T11:26:41.511Z,10.60
2023-05-12T11:29:08.393Z,10.70
2023-05-12T11:31:35.198Z,10.80
2023-05-12T11:34:13.608Z,10.80
2023-05-12T11:36:44.452Z,10.90
2023-05-12T11:39:21.375Z,11.00
2023-05-12T11:41:51.390Z,10.80
2023-05-12T11:44:24.007Z,10.90
2023-05-12T11:47:14.646Z,10.70
2023-05-12T11:49:52.593Z,10.70
2023-05-12T11:52:21.177Z,10.50
2023-05-12T11:54:49.103Z,10.60
2023-05-12T11:57:35.302Z,10.80
2023-05-12T12:00:04.731Z,10.90
2023-05-12T12:02:31.684Z,10.70
2023-05-12T12:04:58.639Z,11.10
2023-05-12T12:07:38.456Z,10.90
2023-05-12T12:10:23.353Z,11.20
2023-05-12T12:12:50.152Z,11.20
2023-05-12T12:15:16.964Z,11.00
2023-05-12T12:17:43.813Z,11.00
2023-05-12T12:20:10.996Z,10.90
2023-05-12T12:22:37.819Z,10.80
2023-05-12T12:25:05.316Z,10.60
2023-05-12T12:27:32.251Z,10.60
2023-05-12T12:29:59.640Z,10.60
2023-05-12T12:32:27.134Z,10.70
2023-05-12T12:34:53.969Z,10.90
2023-05-12T12:37:20.863Z,11.10
2023-05-12T12:39:47.982Z,11.20
2023-05-12T12:42:15.722Z,11.20
2023-05-12T12:44:42.747Z,11.30
2023-05-12T12:47:09.690Z,11.40
2023-05-12T12:49:36.521Z,11.40
2023-05-12T12:52:03.425Z,11.40
2023-05-12T12:54:30.229Z,11.40
2023-05-12T12:56:57.023Z,11.40
2023-05-12T12:59:23.887Z,11.30
2023-05-12T13:01:50.768Z,11.30
2023-05-12T13:04:22.276Z,11.40
2023-05-12T13:06:49.526Z,11.40
2023-05-12T13:09:19.062Z,11.60
2023-05-12T13:11:47.614Z,11.50
2023-05-12T13:14:14.541Z,11.40
2023-05-12T13:16:41.797Z,11.20
2023-05-12T13:19:09.018Z,10.80
2023-05-12T13:21:35.884Z,10.80
2023-05-12T13:24:02.706Z,10.70
2023-05-12T13:26:29.534Z,10.80
2023-05-12T13:28:56.262Z,10.70
2023-05-12T13:31:23.261Z,11.00
2023-05-12T13:33:50.555Z,10.70
2023-05-12T13:36:17.366Z,10.50
2023-05-12T13:38:44.157Z,10.70
2023-05-12T13:41:11.296Z,10.90
2023-05-12T13:43:38.071Z,10.80
2023-05-12T13:46:05.000Z,10.90
2023-05-12T13:48:31.910Z,11.10
2023-05-12T13:50:58.670Z,11.00
2023-05-12T13:53:25.518Z,11.00
2023-05-12T13:55:52.264Z,11.00
2023-05-12T13:58:19.024Z,10.80
2023-05-12T14:00:47.996Z,10.90
2023-05-12T14:03:14.867Z,10.80
2023-05-12T14:05:41.694Z,10.90
2023-05-12T14:08:08.531Z,10.80
2023-05-12T14:10:35.506Z,10.80
2023-05-12T14:13:02.984Z,10.60
2023-05-12T14:15:40.462Z,10.80
2023-05-12T14:18:14.891Z,10.80
2023-05-12T14:20:42.071Z,11.00
2023-05-12T14:23:09.038Z,11.00
2023-05-12T14:25:35.819Z,10.90
2023-05-12T14:28:03.482Z,11.10
2023-05-12T14:30:30.474Z,11.00
2023-05-12T14:32:57.446Z,11.00
2023-05-12T14:35:27.723Z,11.00
2023-05-12T14:37:55.123Z,11.00
2023-05-12T14:40:22.124Z,11.00
2023-05-12T14:42:49.165Z,11.00
2023-05-12T14:45:16.274Z,10.70
2023-05-12T14:47:43.077Z,10.70
2023-05-12T14:50:10.534Z,10.60
2023-05-12T14:52:40.022Z,10.40
2023-05-12T14:55:11.750Z,10.30
2023-05-12T14:57:40.448Z,10.30
2023-05-12T15:00:08.943Z,10.10
2023-05-12T15:02:35.914Z,10.20
2023-05-12T15:05:03.284Z,10.20
2023-05-12T15:07:30.168Z,10.10
2023-05-12T15:09:56.993Z,10.00
2023-05-12T15:12:23.803Z,10.10
2023-05-12T15:14:50.801Z,10.10
2023-05-12T15:17:17.932Z,10.00
2023-05-12T15:19:45.226Z,10.10
2023-05-12T15:22:12.221Z,10.20
2023-05-12T15:24:39.288Z,10.20
2023-05-12T15:27:07.813Z,10.30
2023-05-12T15:29:38.549Z,10.20
2023-05-12T15:32:05.787Z,10.30
2023-05-12T15:34:32.645Z,10.40
2023-05-12T15:36:59.401Z,10.30
2023-05-12T15:39:26.367Z,10.30
2023-05-12T15:41:53.297Z,10.20
2023-05-12T15:44:20.308Z,10.30
2023-05-12T15:46:47.245Z,10.20
2023-05-12T15:49:14.324Z,10.30
2023-05-12T15:51:41.113Z,10.20
2023-05-12T15:54:09.485Z,10.20
2023-05-12T15:56:37.364Z,10.20
2023-05-12T15:59:05.263Z,10.20
2023-05-12T16:01:32.314Z,10.20
2023-05-12T16:03:59.636Z,10.20
2023-05-12T16:06:26.886Z,10.20
2023-05-12T16:08:53.730Z,10.00
2023-05-12T16:11:20.507Z,10.20
2023-05-12T16:13:47.363Z,10.20
2023-05-12T16:16:14.322Z,10.10
2023-05-12T16:18:41.306Z,10.00
2023-05-12T16:21:09.478Z,10.10
2023-05-12T16:23:36.311Z,10.10
2023-05-12T16:26:03.276Z,10.00
2023-05-12T16:28:30.130Z,9.90
2023-05-12T16:30:56.880Z,9.90
2023-05-12T16:33:23.951Z,9.90
2023-05-12T16:35:50.755Z,9.90
2023-05-12T16:38:17.510Z,9.90
2023-05-12T16:40:44.434Z,9.90
2023-05-12T16:43:11.377Z,9.90
2023-05-12T16:45:38.236Z,9.80
2023-05-12T16:48:05.261Z,9.90
2023-05-12T16:50:32.404Z,9.90
2023-05-12T16:52:59.182Z,9.90
2023-05-12T16:55:26.014Z,9.90
2023-05-12T16:57:52.763Z,10.00
2023-05-12T17:00:19.826Z,9.90
2023-05-12T17:02:46.718Z,9.80
2023-05-12T17:05:13.604Z,9.70
2023-05-12T17:07:40.578Z,9.70
2023-05-12T17:10:07.694Z,9.70
2023-05-12T17:12:34.475Z,9.70
2023-05-12T17:15:07.440Z,9.70
2023-05-12T17:17:35.332Z,9.80
2023-05-12T17:20:02.559Z,9.70
2023-05-12T17:22:30.971Z,9.70
2023-05-12T17:24:57.736Z,9.70
2023-05-12T17:27:24.506Z,9.70
2023-05-12T17:29:51.294Z,9.70
2023-05-12T17:32:18.060Z,9.60
2023-05-12T17:34:44.805Z,9.60
2023-05-12T17:37:11.910Z,9.70
2023-05-12T17:39:40.693Z,9.60
2023-05-12T17:42:07.795Z,9.60
2023-05-12T17:44:35.083Z,9.60
2023-05-12T17:47:02.053Z,9.70
2023-05-12T17:49:28.912Z,9.80
2023-05-12T17:51:56.131Z,9.80
2023-05-12T17:54:22.905Z,9.80
2023-05-12T17:56:49.639Z,9.70
2023-05-12T17:59:16.417Z,9.70
2023-05-12T18:01:43.229Z,9.70
2023-05-12T18:04:10.103Z,9.70
2023-05-12T18:06:36.878Z,9.70
2023-05-12T18:09:03.905Z,9.70
2023-05-12T18:11:31.155Z,9.70
2023-05-12T18:13:58.625Z,9.70
2023-05-12T18:16:29.200Z,9.70
2023-05-12T18:18:56.914Z,9.60
2023-05-12T18:21:23.914Z,9.70
2023-05-12T18:23:50.943Z,9.70
2023-05-12T18:26:17.779Z,9.70
2023-05-12T18:28:44.565Z,9.70
2023-05-12T18:33:41.160Z,9.60
2023-05-12T18:36:08.260Z,9.60
2023-05-12T18:38:35.033Z,9.60
2023-05-12T18:41:02.007Z,9.60
2023-05-12T18:43:28.748Z,9.50
2023-05-12T18:45:55.490Z,9.50
2023-05-12T18:48:22.251Z,9.50
2023-05-12T18:50:49.076Z,9.50
2023-05-12T18:53:16.049Z,9.50
2023-05-12T18:55:42.838Z,9.50
2023-05-12T18:58:09.600Z,9.50
2023-05-12T19:00:36.408Z,9.50
2023-05-12T19:03:03.597Z,9.50
2023-05-12T19:05:30.875Z,9.50
2023-05-12T19:07:57.718Z,9.50
2023-05-12T19:10:24.496Z,9.50
2023-05-12T19:12:51.370Z,9.40
2023-05-12T19:15:18.242Z,9.40
2023-05-12T19:17:45.414Z,9.40
2023-05-12T19:20:12.271Z,9.50
2023-05-12T19:22:39.159Z,9.40
2023-05-12T19:25:06.539Z,9.40
2023-05-12T19:27:33.309Z,9.30
2023-05-12T19:30:02.308Z,9.30
2023-05-12T19:32:30.863Z,9.30
2023-05-12T19:34:58.256Z,9.30
2023-05-12T19:37:25.916Z,9.30
2023-05-12T19:39:53.799Z,9.30
2023-05-12T19:42:21.395Z,9.40
2023-05-12T19:44:48.227Z,9.40
2023-05-12T19:47:15.062Z,9.40
2023-05-12T19:49:42.011Z,9.40
2023-05-12T19:52:10.875Z,9.40
2023-05-12T19:54:37.617Z,9.30
2023-05-12T19:57:05.701Z,9.40
2023-05-12T19:59:32.520Z,9.40
2023-05-12T20:01:59.303Z,9.40
2023-05-12T20:04:27.172Z,9.50
2023-05-12T20:06:54.586Z,9.40
2023-05-12T20:09:27.062Z,9.30
2023-05-12T20:11:53.847Z,9.20
2023-05-12T20:14:20.956Z,9.20
2023-05-12T20:16:47.761Z,9.30
2023-05-12T20:19:14.789Z,9.30
2023-05-12T20:21:41.721Z,9.30
2023-05-12T20:24:09.086Z,9.30
2023-05-12T20:26:36.632Z,9.30
2023-05-12T20:29:03.418Z,9.40
2023-05-12T20:31:30.382Z,9.40
2023-05-12T20:33:57.217Z,9.40
2023-05-12T20:36:23.955Z,9.40
2023-05-12T20:38:50.744Z,9.40
2023-05-12T20:41:17.477Z,9.30
2023-05-12T20:43:45.921Z,9.20
2023-05-12T20:46:13.459Z,9.20
2023-05-12T20:48:40.235Z,9.20
2023-05-12T20:51:11.822Z,9.20
2023-05-12T20:53:38.633Z,9.20
2023-05-12T20:56:08.327Z,9.20
2023-05-12T20:58:35.644Z,9.20
2023-05-12T21:01:02.473Z,9.10
2023-05-12T21:03:29.317Z,9.10
2023-05-12T21:05:56.120Z,9.10
2023-05-12T21:08:23.120Z,9.20
2023-05-12T21:10:49.990Z,9.20
2023-05-12T21:13:16.997Z,9.20
2023-05-12T21:15:43.822Z,9.20
2023-05-12T21:18:10.851Z,9.20
2023-05-12T21:20:37.712Z,9.20
2023-05-12T21:23:04.740Z,9.10
2023-05-12T21:25:31.604Z,9.10
2023-05-12T21:27:58.358Z,9.10
2023-05-12T21:30:25.087Z,9.20
2023-05-12T21:32:51.880Z,9.20
2023-05-12T21:35:18.929Z,9.10
2023-05-12T21:37:46.307Z,9.10
2023-05-12T21:40:13.490Z,9.10
2023-05-12T21:42:40.269Z,9.00
2023-05-12T21:45:07.540Z,9.00
2023-05-12T21:47:34.467Z,9.00
2023-05-12T21:50:01.404Z,9.00
2023-05-12T21:52:28.215Z,9.00
2023-05-12T21:54:55.021Z,9.00
2023-05-12T21:57:21.912Z,9.00
2023-05-12T21:59:49.599Z,9.00
2023-05-12T22:02:16.583Z,9.00
2023-05-12T22:04:43.371Z,8.90
2023-05-12T22:07:10.105Z,8.90
2023-05-12T22:09:36.962Z,8.90
2023-05-12T22:12:03.928Z,8.90
2023-05-12T22:14:30.835Z,8.90
2023-05-12T22:16:57.871Z,8.90
2023-05-12T22:19:24.779Z,8.90
2023-05-12T22:21:51.833Z,8.90
2023-05-12T22:24:18.600Z,8.90
2023-05-12T22:26:46.003Z,8.90
2023-05-12T22:29:12.785Z,8.90
2023-05-12T22:31:39.674Z,8.90
2023-05-12T22:34:06.533Z,8.90
2023-05-12T22:36:33.460Z,8.90
2023-05-12T22:39:00.307Z,8.90
2023-05-12T22:41:27.143Z,8.90
2023-05-12T22:43:53.929Z,8.90
2023-05-12T22:46:20.817Z,8.90
2023-05-12T22:48:47.665Z,8.90
2023-05-12T22:51:14.407Z,8.90
2023-05-12T22:53:41.458Z,8.90
2023-05-12T22:56:08.683Z,8.80
2023-05-12T22:58:35.622Z,8.80
2023-05-12T23:01:02.459Z,8.80
2023-05-12T23:03:29.583Z,8.80
2023-05-12T23:05:56.425Z,8.80
2023-05-12T23:08:23.178Z,8.80
2023-05-12T23:10:49.927Z,8.80
2023-05-12T23:13:16.765Z,8.80
2023-05-12T23:15:43.510Z,8.80
2023-05-12T23:18:10.331Z,8.80
2023-05-12T23:20:37.114Z,8.80
2023-05-12T23:23:03.974Z,8.80
2023-05-12T23:25:31.756Z,8.80
2023-05-12T23:27:58.545Z,8.80
2023-05-12T23:30:25.411Z,8.80
2023-05-12T23:32:52.239Z,8.80
2023-05-12T23:35:19.081Z,8.80
2023-05-12T23:37:45.838Z,8.90
2023-05-12T23:40:12.809Z,8.90
2023-05-12T23:42:39.570Z,8.80
2023-05-12T23:45:07.130Z,8.80
2023-05-12T23:47:34.091Z,8.80
2023-05-12T23:50:00.845Z,8.80
2023-05-12T23:52:27.674Z,8.80
2023-05-12T23:54:54.434Z,8.80
2023-05-12T23:57:21.291Z,8.80
2023-05-12T23:59:48.038Z,8.80
